createdAt,value
2022-12-26T00:00:32.545Z,88.531494
2022-12-26T00:01:40.141Z,88.122559
2022-12-26T00:02:49.955Z,88.433838
2022-12-26T00:03:59.645Z,88.330078
2022-12-26T00:05:09.205Z,88.226318
2022-12-26T00:06:17.884Z,87.915039
2022-12-26T00:07:26.588Z,87.567139
2022-12-26T00:08:36.279Z,87.817383
2022-12-26T00:09:45.012Z,87.365723
2022-12-26T00:10:53.697Z,87.567139
2022-12-26T00:12:03.349Z,87.261963
2022-12-26T00:13:37.945Z,87.054443
2022-12-26T00:14:23.709Z,86.846924
2022-12-26T00:15:33.372Z,87.158203
2022-12-26T00:16:43.098Z,87.158203
2022-12-26T00:17:51.702Z,87.158203
2022-12-26T00:19:00.374Z,86.846924
2022-12-26T00:20:10.049Z,86.846924
2022-12-26T00:21:17.727Z,86.749268
2022-12-26T00:22:26.386Z,86.645508
2022-12-26T00:23:36.094Z,86.437988
2022-12-26T00:24:44.876Z,86.437988
2022-12-26T00:25:54.531Z,86.645508
2022-12-26T00:27:03.211Z,86.645508
2022-12-26T00:28:11.874Z,86.993408
2022-12-26T00:29:21.577Z,87.200928
2022-12-26T00:30:30.269Z,87.506104
2022-12-26T00:31:38.042Z,87.402344
2022-12-26T00:32:47.609Z,87.713623
2022-12-26T00:33:57.322Z,87.817383
2022-12-26T00:35:05.977Z,87.713623
2022-12-26T00:36:14.656Z,87.652588
2022-12-26T00:37:24.384Z,87.750244
2022-12-26T00:38:34.032Z,87.652588
2022-12-26T00:39:43.701Z,87.445068
2022-12-26T00:40:51.361Z,87.750244
2022-12-26T00:42:01.094Z,87.750244
2022-12-26T00:43:09.808Z,87.854004
2022-12-26T00:44:18.410Z,87.750244
2022-12-26T00:45:28.094Z,87.854004
2022-12-26T00:46:37.773Z,88.061523
2022-12-26T00:47:47.447Z,87.957764
2022-12-26T00:48:57.089Z,87.957764
2022-12-26T00:50:12.149Z,87.854004
2022-12-26T00:51:17.420Z,87.957764
2022-12-26T00:52:26.071Z,87.957764
2022-12-26T00:53:35.780Z,87.854004
2022-12-26T00:54:44.445Z,87.854004
2022-12-26T00:55:54.113Z,87.854004
2022-12-26T00:57:03.781Z,87.957764
2022-12-26T00:58:11.434Z,87.957764
2022-12-26T00:59:20.156Z,87.854004
2022-12-26T01:00:29.857Z,87.750244
2022-12-26T01:01:38.689Z,87.854004
2022-12-26T01:02:48.370Z,87.652588
2022-12-26T01:03:56.909Z,87.548828
2022-12-26T01:05:06.569Z,87.652588
2022-12-26T01:06:16.260Z,87.445068
2022-12-26T01:07:24.954Z,87.237549
2022-12-26T01:08:33.626Z,87.445068
2022-12-26T01:09:43.287Z,87.036133
2022-12-26T01:10:53.004Z,87.133789
2022-12-26T01:12:01.700Z,86.932373
2022-12-26T01:13:09.337Z,86.724854
2022-12-26T01:14:19.018Z,86.828613
2022-12-26T01:15:28.677Z,86.828613
2022-12-26T01:16:36.417Z,86.828613
2022-12-26T01:17:45.050Z,86.932373
2022-12-26T01:18:54.739Z,87.036133
2022-12-26T01:20:04.442Z,87.036133
2022-12-26T01:21:14.148Z,87.237549
2022-12-26T01:22:23.855Z,87.133789
2022-12-26T01:23:32.513Z,87.280273
2022-12-26T01:24:42.171Z,87.384033
2022-12-26T01:26:16.220Z,87.487793
2022-12-26T01:26:58.485Z,87.280273
2022-12-26T01:28:08.181Z,87.280273
2022-12-26T01:29:16.868Z,87.280273
2022-12-26T01:30:25.548Z,87.176514
2022-12-26T01:31:35.347Z,86.968994
2022-12-26T01:32:43.979Z,86.724854
2022-12-26T01:33:53.746Z,86.621094
2022-12-26T01:35:00.371Z,86.621094
2022-12-26T01:36:08.041Z,86.663818
2022-12-26T01:37:17.700Z,86.865234
2022-12-26T01:38:26.361Z,87.072754
2022-12-26T01:39:36.031Z,87.176514
2022-12-26T01:40:44.719Z,87.280273
2022-12-26T01:41:53.388Z,87.280273
2022-12-26T01:43:03.089Z,87.176514
2022-12-26T01:44:11.751Z,87.280273
2022-12-26T01:45:19.420Z,87.384033
2022-12-26T01:46:29.148Z,87.420654
2022-12-26T01:47:37.784Z,87.420654
2022-12-26T01:48:47.449Z,87.524414
2022-12-26T01:49:56.127Z,87.420654
2022-12-26T01:51:04.808Z,87.524414
2022-12-26T01:52:14.500Z,87.420654
2022-12-26T01:53:24.153Z,87.316895
2022-12-26T01:54:38.853Z,87.420654
2022-12-26T01:55:44.487Z,87.524414
2022-12-26T01:56:54.176Z,87.420654
2022-12-26T01:58:03.123Z,87.316895
2022-12-26T01:59:10.783Z,87.420654
2022-12-26T02:00:20.432Z,87.731934
2022-12-26T02:01:30.326Z,87.420654
2022-12-26T02:02:39.939Z,87.316895
2022-12-26T02:03:48.483Z,87.420654
2022-12-26T02:04:58.192Z,87.628174
2022-12-26T02:06:06.886Z,87.524414
2022-12-26T02:07:16.550Z,87.731934
2022-12-26T02:08:25.303Z,87.524414
2022-12-26T02:09:33.917Z,87.524414
2022-12-26T02:10:43.589Z,87.524414
2022-12-26T02:12:33.185Z,87.420654
2022-12-26T02:13:03.885Z,87.316895
2022-12-26T02:14:12.591Z,87.420654
2022-12-26T02:15:20.251Z,87.670898
2022-12-26T02:16:30.004Z,87.567139
2022-12-26T02:17:38.659Z,87.872314
2022-12-26T02:18:48.356Z,87.670898
2022-12-26T02:19:58.120Z,87.670898
2022-12-26T02:21:07.798Z,87.463379
2022-12-26T02:22:17.489Z,87.359619
2022-12-26T02:23:27.172Z,87.359619
2022-12-26T02:24:34.859Z,87.115479
2022-12-26T02:25:44.572Z,87.316895
2022-12-26T02:26:54.249Z,87.011719
2022-12-26T02:28:03.915Z,86.700439
2022-12-26T02:29:13.642Z,86.602783
2022-12-26T02:30:22.309Z,86.602783
2022-12-26T02:31:32.087Z,86.499023
2022-12-26T02:32:41.712Z,86.700439
2022-12-26T02:33:50.402Z,86.700439
2022-12-26T02:35:01.072Z,86.804199
2022-12-26T02:36:09.713Z,87.011719
2022-12-26T02:37:18.409Z,87.054443
2022-12-26T02:38:28.058Z,87.1521
2022-12-26T02:39:42.938Z,87.054443
2022-12-26T02:40:48.439Z,87.255859
2022-12-26T02:41:57.126Z,87.359619
2022-12-26T02:43:06.887Z,87.463379
2022-12-26T02:44:16.528Z,87.670898
2022-12-26T02:45:25.380Z,87.567139
2022-12-26T02:46:35.130Z,87.567139
2022-12-26T02:47:42.794Z,87.811279
2022-12-26T02:48:51.476Z,87.915039
2022-12-26T02:50:01.136Z,87.670898
2022-12-26T02:51:09.797Z,87.811279
2022-12-26T02:52:17.443Z,87.70752
2022-12-26T02:53:27.121Z,87.811279
2022-12-26T02:54:35.817Z,87.670898
2022-12-26T02:55:45.511Z,87.567139
2022-12-26T02:56:55.145Z,87.670898
2022-12-26T02:58:04.829Z,87.567139
2022-12-26T02:59:14.505Z,87.60376
2022-12-26T03:00:23.210Z,87.70752
2022-12-26T03:01:32.003Z,87.670898
2022-12-26T03:02:41.730Z,87.463379
2022-12-26T03:03:51.216Z,87.359619
2022-12-26T03:05:00.903Z,87.463379
2022-12-26T03:06:10.638Z,87.359619
2022-12-26T03:07:20.343Z,87.359619
2022-12-26T03:08:30.015Z,87.463379
2022-12-26T03:09:38.699Z,87.463379
2022-12-26T03:10:47.376Z,87.359619
2022-12-26T03:11:57.496Z,87.567139
2022-12-26T03:13:05.750Z,87.670898
2022-12-26T03:14:15.468Z,87.811279
2022-12-26T03:15:25.147Z,87.915039
2022-12-26T03:16:33.871Z,88.018799
2022-12-26T03:17:43.515Z,87.811279
2022-12-26T03:18:57.447Z,87.506104
2022-12-26T03:20:01.862Z,87.359619
2022-12-26T03:21:11.477Z,87.1521
2022-12-26T03:22:21.164Z,87.255859
2022-12-26T03:23:29.865Z,87.1521
2022-12-26T03:24:37.516Z,87.567139
2022-12-26T03:25:47.200Z,87.463379
2022-12-26T03:26:56.897Z,87.359619
2022-12-26T03:28:06.555Z,87.359619
2022-12-26T03:29:19.100Z,87.463379
2022-12-26T03:30:26.911Z,87.359619
2022-12-26T03:31:35.599Z,87.359619
2022-12-26T03:32:45.279Z,87.359619
2022-12-26T03:33:54.967Z,87.255859
2022-12-26T03:35:03.639Z,87.1521
2022-12-26T03:36:13.299Z,87.255859
2022-12-26T03:37:22.041Z,87.463379
2022-12-26T03:38:31.731Z,87.60376
2022-12-26T03:39:41.405Z,87.402344
2022-12-26T03:40:51.088Z,87.402344
2022-12-26T03:41:59.780Z,87.402344
2022-12-26T03:43:09.480Z,87.506104
2022-12-26T03:44:18.150Z,87.60376
2022-12-26T03:45:27.818Z,87.811279
2022-12-26T03:46:36.607Z,87.811279
2022-12-26T03:47:45.172Z,87.60376
2022-12-26T03:48:54.873Z,87.60376
2022-12-26T03:50:04.557Z,87.70752
2022-12-26T03:51:14.239Z,87.915039
2022-12-26T03:52:23.966Z,87.70752
2022-12-26T03:53:32.614Z,87.60376
2022-12-26T03:54:42.315Z,87.402344
2022-12-26T03:55:49.976Z,87.054443
2022-12-26T03:56:58.693Z,87.054443
2022-12-26T03:58:08.418Z,86.950684
2022-12-26T03:59:17.114Z,86.987305
2022-12-26T04:00:27.726Z,87.054443
2022-12-26T04:01:36.484Z,87.091064
2022-12-26T04:02:45.043Z,87.194824
2022-12-26T04:03:54.771Z,87.298584
2022-12-26T04:05:02.393Z,87.506104
2022-12-26T04:06:11.047Z,87.70752
2022-12-26T04:07:20.709Z,87.811279
2022-12-26T04:08:29.374Z,87.957764
2022-12-26T04:09:39.055Z,87.957764
2022-12-26T04:10:47.730Z,88.061523
2022-12-26T04:11:56.474Z,88.262939
2022-12-26T04:13:05.129Z,88.165283
2022-12-26T04:14:13.835Z,88.061523
2022-12-26T04:15:23.572Z,88.061523
2022-12-26T04:16:32.187Z,88.165283
2022-12-26T04:17:40.855Z,88.262939
2022-12-26T04:18:50.514Z,88.366699
2022-12-26T04:19:59.196Z,88.470459
2022-12-26T04:21:07.947Z,88.470459
2022-12-26T04:22:16.619Z,88.677979
2022-12-26T04:23:26.321Z,88.677979
2022-12-26T04:24:35.988Z,88.781738
2022-12-26T04:25:49.249Z,88.677979
2022-12-26T04:26:55.353Z,89.025879
2022-12-26T04:28:05.048Z,88.818359
2022-12-26T04:29:14.701Z,89.129639
2022-12-26T04:30:23.340Z,89.025879
2022-12-26T04:31:32.108Z,88.922119
2022-12-26T04:32:40.717Z,89.025879
2022-12-26T04:33:50.383Z,88.922119
2022-12-26T04:35:00.147Z,88.922119
2022-12-26T04:36:07.728Z,88.818359
2022-12-26T04:37:17.422Z,89.025879
2022-12-26T04:38:27.100Z,89.025879
2022-12-26T04:39:35.758Z,89.233398
2022-12-26T04:40:45.445Z,89.129639
2022-12-26T04:41:54.129Z,89.129639
2022-12-26T04:43:46.385Z,89.025879
2022-12-26T04:44:14.478Z,88.922119
2022-12-26T04:45:22.183Z,89.129639
2022-12-26T04:46:31.936Z,89.025879
2022-12-26T04:47:40.564Z,89.129639
2022-12-26T04:48:49.282Z,89.233398
2022-12-26T04:49:58.976Z,89.337158
2022-12-26T04:51:07.645Z,89.233398
2022-12-26T04:52:17.311Z,89.233398
2022-12-26T04:53:25.979Z,89.129639
2022-12-26T04:54:34.639Z,89.337158
2022-12-26T04:55:44.475Z,89.025879
2022-12-26T04:56:54.133Z,88.922119
2022-12-26T04:58:02.830Z,88.720703
2022-12-26T04:59:12.509Z,88.818359
2022-12-26T05:00:21.187Z,88.922119
2022-12-26T05:01:30.955Z,88.616943
2022-12-26T05:02:39.759Z,88.574219
2022-12-26T05:03:48.283Z,88.677979
2022-12-26T05:04:57.933Z,88.574219
2022-12-26T05:06:06.594Z,88.366699
2022-12-26T05:07:16.285Z,88.366699
2022-12-26T05:08:24.956Z,88.366699
2022-12-26T05:09:34.636Z,88.262939
2022-12-26T05:10:44.301Z,88.061523
2022-12-26T05:11:51.998Z,87.957764
2022-12-26T05:13:00.716Z,87.854004
2022-12-26T05:14:10.385Z,87.957764
2022-12-26T05:15:20.168Z,87.957764
2022-12-26T05:16:28.924Z,87.750244
2022-12-26T05:17:37.518Z,87.750244
2022-12-26T05:18:46.223Z,87.750244
2022-12-26T05:19:56.005Z,87.957764
2022-12-26T05:21:05.650Z,88.061523
2022-12-26T05:22:13.314Z,88.061523
2022-12-26T05:23:22.996Z,87.957764
2022-12-26T05:24:32.783Z,87.854004
2022-12-26T05:25:42.449Z,88.165283
2022-12-26T05:26:51.106Z,88.165283
2022-12-26T05:27:59.848Z,88.262939
2022-12-26T05:29:09.534Z,88.262939
2022-12-26T05:30:18.258Z,88.262939
2022-12-26T05:31:33.129Z,88.165283
2022-12-26T05:32:38.644Z,88.165283
2022-12-26T05:33:47.296Z,88.262939
2022-12-26T05:34:55.978Z,88.165283
2022-12-26T05:36:05.706Z,88.366699
2022-12-26T05:37:13.355Z,88.262939
2022-12-26T05:38:23.038Z,88.470459
2022-12-26T05:39:30.759Z,88.616943
2022-12-26T05:40:40.428Z,88.720703
2022-12-26T05:41:50.119Z,89.025879
2022-12-26T05:42:59.802Z,88.922119
2022-12-26T05:44:09.487Z,88.616943
2022-12-26T05:45:19.172Z,88.720703
2022-12-26T05:46:27.954Z,88.616943
2022-12-26T05:47:37.700Z,88.366699
2022-12-26T05:48:48.359Z,88.165283
2022-12-26T05:49:56.034Z,88.262939
2022-12-26T05:51:06.744Z,88.262939
2022-12-26T05:52:15.452Z,88.470459
2022-12-26T05:53:24.108Z,88.470459
2022-12-26T05:54:32.770Z,88.470459
2022-12-26T05:55:42.440Z,88.366699
2022-12-26T05:56:52.117Z,88.262939
2022-12-26T05:58:00.799Z,88.165283
2022-12-26T05:59:09.482Z,88.165283
2022-12-26T06:00:19.176Z,88.165283
2022-12-26T06:01:27.966Z,87.957764
2022-12-26T06:02:36.705Z,88.262939
2022-12-26T06:03:45.269Z,88.165283
2022-12-26T06:04:54.949Z,87.957764
2022-12-26T06:06:04.644Z,88.061523
2022-12-26T06:07:11.288Z,88.061523
2022-12-26T06:08:21.041Z,87.60376
2022-12-26T06:09:29.669Z,87.60376
2022-12-26T06:10:38.393Z,87.402344
2022-12-26T06:11:49.046Z,87.402344
2022-12-26T06:12:56.702Z,87.194824
2022-12-26T06:14:06.374Z,87.298584
2022-12-26T06:15:16.046Z,87.091064
2022-12-26T06:16:24.791Z,86.950684
2022-12-26T06:17:35.456Z,86.743164
2022-12-26T06:18:43.769Z,86.639404
2022-12-26T06:19:52.447Z,86.535645
2022-12-26T06:21:02.104Z,86.639404
2022-12-26T06:22:11.778Z,86.743164
2022-12-26T06:23:20.522Z,86.743164
2022-12-26T06:24:29.257Z,86.431885
2022-12-26T06:25:37.903Z,86.431885
2022-12-26T06:26:47.573Z,86.431885
2022-12-26T06:27:56.246Z,86.395264
2022-12-26T06:29:05.013Z,86.395264
2022-12-26T06:30:14.662Z,86.602783
2022-12-26T06:31:24.378Z,86.291504
2022-12-26T06:32:34.044Z,86.395264
2022-12-26T06:33:43.747Z,86.395264
2022-12-26T06:34:52.458Z,86.499023
2022-12-26T06:36:02.136Z,86.352539
2022-12-26T06:37:09.841Z,86.151123
2022-12-26T06:38:17.554Z,85.736084
2022-12-26T06:39:27.285Z,85.491943
2022-12-26T06:40:35.003Z,85.180664
2022-12-26T06:41:44.644Z,85.388184
2022-12-26T06:42:54.301Z,85.180664
2022-12-26T06:44:03.995Z,85.284424
2022-12-26T06:45:14.698Z,85.180664
2022-12-26T06:46:22.420Z,85.083008
2022-12-26T06:47:31.040Z,84.875488
2022-12-26T06:48:40.864Z,84.667969
2022-12-26T06:49:49.536Z,84.667969
2022-12-26T06:50:59.234Z,84.423828
2022-12-26T06:52:07.885Z,84.222412
2022-12-26T06:53:17.591Z,83.911133
2022-12-26T06:54:27.237Z,83.911133
2022-12-26T06:55:35.945Z,84.014893
2022-12-26T06:56:44.628Z,84.014893
2022-12-26T06:57:54.372Z,83.911133
2022-12-26T06:59:03.049Z,84.014893
2022-12-26T07:00:12.744Z,84.014893
2022-12-26T07:01:22.523Z,83.605957
2022-12-26T07:02:32.252Z,83.563232
2022-12-26T07:03:46.737Z,83.459473
2022-12-26T07:04:52.436Z,83.563232
2022-12-26T07:06:00.120Z,83.459473
2022-12-26T07:07:09.767Z,83.459473
2022-12-26T07:08:19.449Z,83.361816
2022-12-26T07:09:33.530Z,83.563232
2022-12-26T07:10:38.816Z,83.563232
2022-12-26T07:11:48.509Z,83.459473
2022-12-26T07:12:58.176Z,83.563232
2022-12-26T07:14:06.884Z,83.563232
2022-12-26T07:15:14.542Z,83.563232
2022-12-26T07:16:24.274Z,83.563232
2022-12-26T07:17:33.872Z,83.770752
2022-12-26T07:18:42.635Z,84.075928
2022-12-26T07:19:51.330Z,84.075928
2022-12-26T07:21:00.002Z,84.075928
2022-12-26T07:22:09.665Z,83.563232
2022-12-26T07:23:18.343Z,83.459473
2022-12-26T07:24:28.011Z,83.361816
2022-12-26T07:25:37.741Z,83.258057
2022-12-26T07:26:47.423Z,83.050537
2022-12-26T07:27:57.074Z,83.117676
2022-12-26T07:29:06.740Z,82.806396
2022-12-26T07:30:15.392Z,82.501221
2022-12-26T07:31:25.135Z,82.36084
2022-12-26T07:32:33.780Z,82.15332
2022-12-26T07:33:41.470Z,81.945801
2022-12-26T07:34:52.131Z,81.945801
2022-12-26T07:36:01.853Z,81.744385
2022-12-26T07:37:10.611Z,81.744385
2022-12-26T07:38:19.325Z,81.744385
2022-12-26T07:39:27.983Z,81.433105
2022-12-26T07:40:37.643Z,81.500244
2022-12-26T07:41:46.305Z,81.604004
2022-12-26T07:42:54.093Z,81.091309
2022-12-26T07:44:03.830Z,80.780029
2022-12-26T07:45:12.435Z,80.474854
2022-12-26T07:46:21.187Z,80.682373
2022-12-26T07:47:30.780Z,80.950928
2022-12-26T07:48:39.461Z,81.152344
2022-12-26T07:49:49.142Z,81.054688
2022-12-26T07:50:57.828Z,80.029297
2022-12-26T07:52:07.523Z,79.785156
2022-12-26T07:53:17.217Z,79.681396
2022-12-26T07:54:26.891Z,78.863525
2022-12-26T07:55:35.565Z,79.13208
2022-12-26T07:56:45.234Z,78.625488
2022-12-26T07:57:54.888Z,78.625488
2022-12-26T07:59:04.602Z,78.625488
2022-12-26T08:00:13.311Z,78.826904
2022-12-26T08:01:22.110Z,78.930664
2022-12-26T08:02:31.748Z,78.826904
2022-12-26T08:03:40.325Z,79.071045
2022-12-26T08:04:49.951Z,78.967285
2022-12-26T08:05:59.653Z,80.053711
2022-12-26T08:07:08.326Z,79.23584
2022-12-26T08:08:18.023Z,79.23584
2022-12-26T08:09:26.699Z,79.443359
2022-12-26T08:10:36.370Z,79.034424
2022-12-26T08:11:45.056Z,79.443359
2022-12-26T08:12:54.774Z,79.034424
2022-12-26T08:14:03.427Z,78.894043
2022-12-26T08:15:12.099Z,78.997803
2022-12-26T08:16:21.883Z,78.790283
2022-12-26T08:17:31.488Z,78.381348
2022-12-26T08:18:41.256Z,78.344727
2022-12-26T08:19:50.874Z,78.137207
2022-12-26T08:20:58.537Z,78.344727
2022-12-26T08:22:06.187Z,78.381348
2022-12-26T08:23:15.937Z,78.277588
2022-12-26T08:24:25.598Z,78.686523
2022-12-26T08:25:35.271Z,79.095459
2022-12-26T08:26:43.950Z,79.199219
2022-12-26T08:27:52.651Z,79.095459
2022-12-26T08:29:02.314Z,79.199219
2022-12-26T08:30:11.008Z,78.894043
2022-12-26T08:31:18.716Z,78.894043
2022-12-26T08:32:28.428Z,78.649902
2022-12-26T08:33:38.238Z,79.058838
2022-12-26T08:34:46.953Z,78.515625
2022-12-26T08:35:55.622Z,77.557373
2022-12-26T08:37:04.375Z,77.252197
2022-12-26T08:38:14.039Z,76.940918
2022-12-26T08:39:23.737Z,76.904297
2022-12-26T08:40:42.925Z,76.092529
2022-12-26T08:41:44.065Z,76.257324
2022-12-26T08:43:11.956Z,75.750732
2022-12-26T08:45:15.033Z,74.89624
2022-12-26T08:46:23.829Z,74.450684
2022-12-26T08:47:33.422Z,74.761963
2022-12-26T08:48:42.080Z,74.145508
2022-12-26T08:49:49.754Z,73.907471
2022-12-26T08:50:59.454Z,73.907471
2022-12-26T08:52:09.126Z,73.602295
2022-12-26T08:53:16.809Z,73.400879
2022-12-26T08:54:25.496Z,74.078369
2022-12-26T08:55:34.171Z,72.955322
2022-12-26T08:56:44.853Z,72.412109
2022-12-26T08:57:52.545Z,72.857666
2022-12-26T08:59:00.195Z,73.022461
2022-12-26T09:00:09.874Z,72.619629
2022-12-26T09:01:19.733Z,72.106934
2022-12-26T09:02:29.406Z,72.650146
2022-12-26T09:03:37.971Z,72.857666
2022-12-26T09:04:46.616Z,72.955322
2022-12-26T09:05:57.070Z,72.650146
2022-12-26T09:07:06.985Z,72.857666
2022-12-26T09:08:15.669Z,73.022461
2022-12-26T09:09:25.360Z,72.210693
2022-12-26T09:10:34.059Z,71.905518
2022-12-26T09:11:43.754Z,71.258545
2022-12-26T09:12:53.413Z,71.057129
2022-12-26T09:14:02.104Z,71.325684
2022-12-26T09:15:11.813Z,71.362305
2022-12-26T09:16:20.571Z,71.228027
2022-12-26T09:17:30.269Z,70.922852
2022-12-26T09:18:39.924Z,70.953369
2022-12-26T09:19:48.644Z,70.617676
2022-12-26T09:20:57.283Z,69.970703
2022-12-26T09:22:06.983Z,70.074463
2022-12-26T09:23:15.657Z,69.329834
2022-12-26T09:24:25.320Z,69.329834
2022-12-26T09:25:33.995Z,69.195557
2022-12-26T09:26:41.710Z,68.585205
2022-12-26T09:27:55.613Z,68.048096
2022-12-26T09:29:01.017Z,66.900635
2022-12-26T09:30:09.696Z,66.796875
2022-12-26T09:31:18.424Z,66.998291
2022-12-26T09:32:28.042Z,66.998291
2022-12-26T09:33:37.804Z,66.796875
2022-12-26T09:34:45.472Z,66.387939
2022-12-26T09:35:57.048Z,66.864014
2022-12-26T09:37:03.839Z,66.125488
2022-12-26T09:38:11.568Z,65.081787
2022-12-26T09:39:21.233Z,65.008545
2022-12-26T09:40:29.927Z,65.313721
2022-12-26T09:41:38.610Z,64.910889
2022-12-26T09:42:49.279Z,65.41748
2022-12-26T09:43:59.083Z,65.753174
2022-12-26T09:45:08.778Z,65.85083
2022-12-26T09:46:18.487Z,65.783691
2022-12-26T09:47:28.177Z,65.783691
2022-12-26T09:48:37.842Z,65.783691
2022-12-26T09:49:46.550Z,66.186523
2022-12-26T09:50:55.201Z,66.387939
2022-12-26T09:52:04.933Z,66.052246
2022-12-26T09:53:14.575Z,65.716553
2022-12-26T09:54:24.245Z,65.142822
2022-12-26T09:55:33.985Z,65.478516
2022-12-26T09:57:52.270Z,65.753174
2022-12-26T09:59:00.951Z,65.649414
2022-12-26T10:00:09.609Z,65.515137
2022-12-26T10:01:19.365Z,65.649414
2022-12-26T10:02:28.113Z,65.112305
2022-12-26T10:03:37.636Z,64.398193
2022-12-26T10:04:45.343Z,64.941406
2022-12-26T10:05:51.971Z,65.41748
2022-12-26T10:07:01.670Z,64.941406
2022-12-26T10:08:11.353Z,65.478516
2022-12-26T10:09:21.003Z,65.478516
2022-12-26T10:10:30.673Z,65.240479
2022-12-26T10:11:39.338Z,65.545654
2022-12-26T10:12:49.021Z,64.471436
2022-12-26T10:13:57.703Z,64.068604
2022-12-26T10:15:05.398Z,63.964844
2022-12-26T10:16:15.073Z,63.934326
2022-12-26T10:17:23.710Z,63.122559
2022-12-26T10:18:33.405Z,62.921143
2022-12-26T10:19:43.070Z,63.122559
2022-12-26T10:20:52.745Z,62.994385
2022-12-26T10:22:02.427Z,63.598633
2022-12-26T10:23:09.101Z,62.487793
2022-12-26T10:24:17.824Z,62.255859
2022-12-26T10:25:31.998Z,62.182617
2022-12-26T10:26:38.119Z,63.092041
2022-12-26T10:27:46.831Z,62.457275
2022-12-26T10:28:56.486Z,62.054443
2022-12-26T10:30:06.193Z,61.621094
2022-12-26T10:31:15.946Z,61.71875
2022-12-26T10:32:27.994Z,61.920166
2022-12-26T10:33:34.210Z,61.38916
2022-12-26T10:34:43.960Z,60.913086
2022-12-26T10:35:53.597Z,61.212158
2022-12-26T10:37:02.310Z,60.705566
2022-12-26T10:38:10.965Z,62.023926
2022-12-26T10:39:20.623Z,61.517334
2022-12-26T10:40:29.335Z,61.315918
2022-12-26T10:41:38.035Z,61.38916
2022-12-26T10:42:47.713Z,61.358643
2022-12-26T10:43:57.480Z,60.681152
2022-12-26T10:45:06.041Z,60.174561
2022-12-26T10:46:15.761Z,60.272217
2022-12-26T10:47:25.423Z,61.486816
2022-12-26T10:48:35.153Z,60.980225
2022-12-26T10:49:44.826Z,61.486816
2022-12-26T10:50:53.488Z,61.38916
2022-12-26T10:52:02.159Z,61.187744
2022-12-26T10:53:11.892Z,61.053467
2022-12-26T10:54:21.535Z,60.449219
2022-12-26T10:55:31.218Z,61.38916
2022-12-26T10:56:40.926Z,62.329102
2022-12-26T10:57:49.541Z,61.413574
2022-12-26T10:58:59.230Z,62.225342
2022-12-26T11:00:07.939Z,62.023926
2022-12-26T11:01:16.698Z,62.023926
2022-12-26T11:02:26.448Z,62.353516
2022-12-26T11:03:35.075Z,63.269043
2022-12-26T11:05:11.499Z,62.860107
2022-12-26T11:06:10.865Z,63.366699
2022-12-26T11:07:06.152Z,63.195801
2022-12-26T11:08:16.823Z,63.702393
2022-12-26T11:09:25.477Z,63.903809
2022-12-26T11:10:34.212Z,63.903809
2022-12-26T11:11:44.003Z,64.105225
2022-12-26T11:12:52.644Z,63.092041
2022-12-26T11:14:03.193Z,62.817383
2022-12-26T11:15:12.016Z,63.62915
2022-12-26T11:16:20.746Z,63.830566
2022-12-26T11:17:30.393Z,64.746094
2022-12-26T11:18:38.049Z,64.038086
2022-12-26T11:19:45.786Z,64.16626
2022-12-26T11:20:55.451Z,64.880371
2022-12-26T11:22:04.122Z,64.776611
2022-12-26T11:23:13.806Z,64.910889
2022-12-26T11:24:22.496Z,65.209961
2022-12-26T11:25:31.159Z,65.112305
2022-12-26T11:26:40.851Z,64.807129
2022-12-26T11:27:49.548Z,65.618896
2022-12-26T11:28:58.195Z,65.716553
2022-12-26T11:30:07.864Z,65.924072
2022-12-26T11:31:16.593Z,66.229248
2022-12-26T11:32:26.245Z,65.820312
2022-12-26T11:33:34.955Z,66.125488
2022-12-26T11:34:43.618Z,65.85083
2022-12-26T11:35:53.278Z,66.662598
2022-12-26T11:37:03.045Z,66.052246
2022-12-26T11:38:12.706Z,66.156006
2022-12-26T11:39:22.400Z,66.461182
2022-12-26T11:40:32.064Z,66.864014
2022-12-26T11:41:41.788Z,66.662598
2022-12-26T11:42:51.461Z,67.376709
2022-12-26T11:44:00.221Z,66.564941
2022-12-26T11:45:09.876Z,66.766357
2022-12-26T11:46:18.562Z,66.967773
2022-12-26T11:47:27.304Z,67.272949
2022-12-26T11:48:36.936Z,66.967773
2022-12-26T11:49:45.595Z,67.102051
2022-12-26T11:50:54.297Z,67.303467
2022-12-26T11:52:02.971Z,67.810059
2022-12-26T11:53:11.641Z,67.810059
2022-12-26T11:54:21.359Z,67.504883
2022-12-26T11:55:30.049Z,67.608643
2022-12-26T11:56:39.740Z,68.52417
2022-12-26T11:57:52.662Z,68.218994
2022-12-26T11:59:00.118Z,68.011475
2022-12-26T12:00:09.835Z,68.725586
2022-12-26T12:01:19.493Z,68.829346
2022-12-26T12:02:29.314Z,68.725586
2022-12-26T12:03:39.230Z,68.31665
2022-12-26T12:04:46.507Z,68.621826
2022-12-26T12:05:56.190Z,68.621826
2022-12-26T12:07:04.880Z,68.42041
2022-12-26T12:08:12.563Z,68.829346
2022-12-26T12:09:23.356Z,68.52417
2022-12-26T12:10:32.033Z,68.829346
2022-12-26T12:11:40.710Z,69.030762
2022-12-26T12:12:50.397Z,69.232178
2022-12-26T12:14:00.107Z,69.232178
2022-12-26T12:15:09.775Z,69.335938
2022-12-26T12:16:18.487Z,69.335938
2022-12-26T12:17:26.095Z,69.842529
2022-12-26T12:18:35.785Z,69.842529
2022-12-26T12:19:45.482Z,70.959473
2022-12-26T12:20:54.145Z,71.362305
2022-12-26T12:22:03.833Z,72.210693
2022-12-26T12:23:13.500Z,72.717285
2022-12-26T12:24:22.169Z,73.126221
2022-12-26T12:25:31.873Z,73.632812
2022-12-26T12:26:40.559Z,74.279785
2022-12-26T12:27:51.254Z,74.884033
2022-12-26T12:29:00.945Z,77.124023
2022-12-26T12:30:09.621Z,80.206299
2022-12-26T12:31:18.354Z,81.365967
2022-12-26T12:32:27.060Z,83.032227
2022-12-26T12:33:36.712Z,84.088135
2022-12-26T12:34:45.412Z,84.838867
2022-12-26T12:35:53.093Z,84.637451
2022-12-26T12:37:02.783Z,84.942627
2022-12-26T12:38:11.552Z,85.284424
2022-12-26T12:39:20.170Z,85.491943
2022-12-26T12:40:28.846Z,85.595703
2022-12-26T12:41:37.515Z,86.303711
2022-12-26T12:42:47.219Z,88.647461
2022-12-26T12:43:54.901Z,90.423584
2022-12-26T12:45:03.591Z,91.387939
2022-12-26T12:46:13.298Z,92.858887
2022-12-26T12:47:22.942Z,93.572998
2022-12-26T12:48:32.728Z,94.63501
2022-12-26T12:49:42.355Z,95.349121
2022-12-26T12:50:56.395Z,95.800781
2022-12-26T12:52:01.680Z,96.008301
2022-12-26T12:53:11.345Z,96.618652
2022-12-26T12:54:19.054Z,96.826172
2022-12-26T12:55:28.739Z,97.332764
2022-12-26T12:56:42.366Z,97.277832
2022-12-26T12:57:47.190Z,97.277832
2022-12-26T12:58:56.876Z,96.972656
2022-12-26T13:00:05.575Z,96.868896
2022-12-26T13:01:16.283Z,96.765137
2022-12-26T13:02:26.072Z,97.076416
2022-12-26T13:03:33.650Z,97.174072
2022-12-26T13:04:43.497Z,97.424316
2022-12-26T13:05:52.129Z,97.833252
2022-12-26T13:07:01.847Z,98.144531
2022-12-26T13:08:10.508Z,98.345947
2022-12-26T13:09:19.213Z,98.651123
2022-12-26T13:10:28.871Z,99.060059
2022-12-26T13:11:37.564Z,99.371338
2022-12-26T13:12:45.226Z,99.517822